createdAt,value
2022-09-01T00:00:02.002Z,59.51
2022-09-01T00:05:03.782Z,59.56
2022-09-01T00:10:04.425Z,59.57
2022-09-01T00:15:04.784Z,59.56
2022-09-01T00:20:04.920Z,59.80
2022-09-01T00:25:06.056Z,59.79
2022-09-01T00:30:05.778Z,59.63
2022-09-01T00:35:06.402Z,59.45
2022-09-01T00:40:06.854Z,59.37
2022-09-01T00:45:06.845Z,59.16
2022-09-01T00:50:08.832Z,59.00
2022-09-01T00:55:08.850Z,58.84
2022-09-01T01:00:10.672Z,58.76
2022-09-01T01:05:15.128Z,58.56
2022-09-01T01:10:14.377Z,58.51
2022-09-01T01:15:14.797Z,58.45
2022-09-01T01:20:33.398Z,58.42
2022-09-01T01:25:33.814Z,58.40
2022-09-01T01:30:35.665Z,58.26
2022-09-01T01:35:36.549Z,58.13
2022-09-01T01:40:36.985Z,57.97
2022-09-01T01:45:36.895Z,57.76
2022-09-01T01:50:37.603Z,57.51
2022-09-01T01:55:38.080Z,57.35
2022-09-01T02:00:37.882Z,57.16
2022-09-01T02:05:37.936Z,57.18
2022-09-01T02:10:37.878Z,57.21
2022-09-01T02:15:40.158Z,57.23
2022-09-01T02:20:40.559Z,57.19
2022-09-01T02:25:58.971Z,57.22
2022-09-01T02:30:45.322Z,57.24
2022-09-01T02:35:44.917Z,57.30
2022-09-01T02:40:46.908Z,57.32
2022-09-01T02:45:46.997Z,57.40
2022-09-01T02:50:49.324Z,57.46
2022-09-01T02:55:48.881Z,57.61
2022-09-01T03:00:50.798Z,57.66
2022-09-01T03:05:51.701Z,57.79
2022-09-01T03:10:55.054Z,57.76
2022-09-01T03:15:55.007Z,58.14
2022-09-01T03:20:56.451Z,58.15
2022-09-01T03:25:56.304Z,58.47
2022-09-01T03:30:55.922Z,58.57
2022-09-01T03:35:56.040Z,59.04
2022-09-01T03:40:59.169Z,59.42
2022-09-01T03:46:00.798Z,59.73
2022-09-01T03:51:02.817Z,60.04
2022-09-01T03:56:05.211Z,60.09
2022-09-01T04:01:05.137Z,60.16
2022-09-01T04:06:07.975Z,60.75
2022-09-01T04:11:08.345Z,61.25
2022-09-01T04:16:11.042Z,61.68
2022-09-01T04:21:12.834Z,61.89
2022-09-01T04:26:15.342Z,61.91
2022-09-01T04:31:16.874Z,62.22
2022-09-01T04:36:21.022Z,62.27
2022-09-01T04:41:21.723Z,62.29
2022-09-01T04:46:22.171Z,62.50
2022-09-01T04:51:27.033Z,62.54
2022-09-01T04:56:41.929Z,62.55
2022-09-01T05:01:47.169Z,62.59
2022-09-01T05:06:51.508Z,62.62
2022-09-01T05:11:52.870Z,62.44
2022-09-01T05:16:54.224Z,62.44
2022-09-01T05:21:55.970Z,62.45
2022-09-01T05:26:56.333Z,62.43
2022-09-01T05:31:56.517Z,62.23
2022-09-01T05:36:57.936Z,62.17
2022-09-01T05:41:58.706Z,62.18
2022-09-01T05:46:59.639Z,62.10
2022-09-01T05:52:02.222Z,62.06
2022-09-01T05:57:30.191Z,62.02
2022-09-01T06:02:09.685Z,61.95
2022-09-01T06:07:13.644Z,61.91
2022-09-01T06:12:18.904Z,61.79
2022-09-01T06:17:21.350Z,61.66
2022-09-01T06:22:23.744Z,61.75
2022-09-01T06:27:24.421Z,60.94
2022-09-01T06:32:25.593Z,59.97
2022-09-01T06:37:27.221Z,58.96
2022-09-01T06:42:29.268Z,57.46
2022-09-01T06:47:29.215Z,53.15
2022-09-01T06:53:32.181Z,43.74
2022-09-01T07:02:50.293Z,35.50
2022-09-01T07:08:04.714Z,30.52
2022-09-01T07:13:11.841Z,27.86
2022-09-01T07:17:58.203Z,27.17
2022-09-01T07:23:07.196Z,25.31
2022-09-01T07:28:01.453Z,23.47
2022-09-01T07:38:47.460Z,21.08
2022-09-01T07:43:29.803Z,20.53
2022-09-01T07:49:02.718Z,20.39
2022-09-01T07:53:32.323Z,19.15
2022-09-01T07:58:34.805Z,18.34
2022-09-01T08:03:35.428Z,18.10
2022-09-01T08:08:35.938Z,17.44
2022-09-01T08:13:41.617Z,16.68
2022-09-01T08:18:49.056Z,15.89
2022-09-01T08:23:45.058Z,15.90
2022-09-01T08:28:46.207Z,15.51
2022-09-01T08:33:48.306Z,15.55
2022-09-01T08:38:48.258Z,14.77
2022-09-01T08:43:48.350Z,14.16
2022-09-01T08:53:50.999Z,13.88
2022-09-01T08:59:05.394Z,13.69
2022-09-01T09:04:05.181Z,13.95
2022-09-01T09:09:05.205Z,13.78
2022-09-01T09:14:06.437Z,13.55
2022-09-01T09:19:06.325Z,13.41
2022-09-01T09:24:06.303Z,13.45
2022-09-01T09:29:06.224Z,13.03
2022-09-01T09:34:06.234Z,13.87
2022-09-01T09:39:06.319Z,13.82
2022-09-01T09:44:06.640Z,13.96
2022-09-01T09:49:06.274Z,14.70
2022-09-01T09:54:06.762Z,15.18
2022-09-01T09:59:06.223Z,14.72
2022-09-01T10:04:06.405Z,14.62
2022-09-01T10:09:06.339Z,14.91
2022-09-01T10:14:07.226Z,14.39
2022-09-01T10:19:12.481Z,15.02
2022-09-01T10:24:17.858Z,18.60
2022-09-01T10:29:15.835Z,20.23
2022-09-01T10:34:15.217Z,19.35
2022-09-01T10:39:15.422Z,19.73
2022-09-01T10:44:15.428Z,20.04
2022-09-01T10:49:16.426Z,19.75
2022-09-01T10:54:16.327Z,20.61
2022-09-01T10:59:35.727Z,21.47
2022-09-01T11:04:18.413Z,22.03
2022-09-01T11:09:18.391Z,22.44
2022-09-01T11:14:18.303Z,22.83
2022-09-01T11:19:18.284Z,23.42
2022-09-01T11:24:18.523Z,24.35
2022-09-01T11:29:18.314Z,24.57
2022-09-01T11:34:18.627Z,25.39
2022-09-01T11:39:19.158Z,25.92
2022-09-01T11:44:19.373Z,26.05
2022-09-01T11:49:19.355Z,26.52
2022-09-01T11:54:19.385Z,26.92
2022-09-01T11:59:19.318Z,27.11
2022-09-01T12:04:21.938Z,27.18
2022-09-01T12:09:22.489Z,27.61
2022-09-01T12:14:22.509Z,28.21
2022-09-01T12:19:22.338Z,28.58
2022-09-01T12:24:22.359Z,29.05
2022-09-01T12:29:22.966Z,28.87
2022-09-01T12:34:23.350Z,29.38
2022-09-01T12:39:23.440Z,29.62
2022-09-01T12:44:23.391Z,29.85
2022-09-01T12:49:25.101Z,29.86
2022-09-01T12:54:25.679Z,30.17
2022-09-01T12:59:37.566Z,30.25
2022-09-01T13:04:27.864Z,30.24
2022-09-01T13:09:27.474Z,29.82
2022-09-01T13:14:29.327Z,29.63
2022-09-01T13:19:30.513Z,29.76
2022-09-01T13:24:31.923Z,29.77
2022-09-01T13:29:33.142Z,30.26
2022-09-01T13:34:33.582Z,30.40
2022-09-01T13:39:34.912Z,30.07
2022-09-01T13:44:35.423Z,29.78
2022-09-01T13:50:04.633Z,29.43
2022-09-01T13:54:37.452Z,29.65
2022-09-01T13:59:37.514Z,30.15
2022-09-01T14:04:37.681Z,29.85
2022-09-01T14:09:37.740Z,30.84
2022-09-01T14:19:39.458Z,31.63
2022-09-01T14:24:40.951Z,31.99
2022-09-01T14:34:41.591Z,31.86
2022-09-01T14:39:41.557Z,31.89
2022-09-01T14:44:43.108Z,31.21
2022-09-01T14:49:43.535Z,30.64
2022-09-01T14:54:43.504Z,30.67
2022-09-01T14:59:43.520Z,31.01
2022-09-01T15:04:43.708Z,31.23
2022-09-01T15:09:43.682Z,31.13
2022-09-01T15:14:43.529Z,30.85
2022-09-01T15:19:43.555Z,30.62
2022-09-01T15:24:43.614Z,30.54
2022-09-01T15:29:46.827Z,30.63
2022-09-01T15:34:46.566Z,30.43
2022-09-01T15:39:48.583Z,30.56
2022-09-01T15:44:48.946Z,30.78
2022-09-01T15:49:48.874Z,31.19
2022-09-01T15:54:48.545Z,31.50
2022-09-01T15:59:48.682Z,32.32
2022-09-01T16:04:51.643Z,32.63
2022-09-01T16:09:53.817Z,33.09
2022-09-01T16:14:54.717Z,33.60
2022-09-01T16:19:55.517Z,33.82
2022-09-01T16:24:57.425Z,33.57
2022-09-01T16:29:57.592Z,33.16
2022-09-01T16:34:57.644Z,33.36
2022-09-01T16:39:57.663Z,33.45
2022-09-01T16:44:57.585Z,33.95
2022-09-01T16:49:59.687Z,34.52
2022-09-01T16:54:59.600Z,35.00
2022-09-01T16:59:59.615Z,35.40
2022-09-01T17:04:59.624Z,35.62
2022-09-01T17:09:59.685Z,36.07
2022-09-01T17:14:59.946Z,36.45
2022-09-01T17:20:00.613Z,36.78
2022-09-01T17:25:00.671Z,37.21
2022-09-01T17:30:00.651Z,37.55
2022-09-01T17:35:00.664Z,38.66
2022-09-01T17:40:00.884Z,39.47
2022-09-01T17:45:00.690Z,40.31
2022-09-01T17:50:00.712Z,40.77
2022-09-01T17:55:00.671Z,41.71
2022-09-01T18:00:01.193Z,42.33
2022-09-01T18:05:00.745Z,42.60
2022-09-01T18:10:00.775Z,43.68
2022-09-01T18:15:00.705Z,44.23
2022-09-01T18:20:00.685Z,45.35
2022-09-01T18:25:01.668Z,46.44
2022-09-01T18:30:04.774Z,46.53
2022-09-01T18:35:04.799Z,46.81
2022-09-01T18:40:05.955Z,46.95
2022-09-01T18:45:05.780Z,47.29
2022-09-01T18:50:05.691Z,48.25
2022-09-01T18:55:08.722Z,48.77
2022-09-01T19:00:18.997Z,47.62
2022-09-01T19:05:10.782Z,46.86
2022-09-01T19:10:12.619Z,46.61
2022-09-01T19:15:14.706Z,46.41
2022-09-01T19:20:14.817Z,46.35
2022-09-01T19:25:33.057Z,46.16
2022-09-01T19:30:35.375Z,46.22
2022-09-01T19:35:34.726Z,46.29
2022-09-01T19:40:37.066Z,46.43
2022-09-01T19:45:36.836Z,46.72
2022-09-01T19:50:37.226Z,46.79
2022-09-01T19:55:36.875Z,46.65
2022-09-01T20:00:38.377Z,46.62
2022-09-01T20:05:38.941Z,46.59
2022-09-01T20:10:38.877Z,46.35
2022-09-01T20:15:39.554Z,46.26
2022-09-01T20:20:44.453Z,46.23
2022-09-01T20:25:44.864Z,45.87
2022-09-01T20:30:44.901Z,45.84
2022-09-01T20:35:44.747Z,45.61
2022-09-01T20:40:44.971Z,45.43
2022-09-01T20:45:45.615Z,45.33
2022-09-01T20:50:45.863Z,45.27
2022-09-01T20:55:45.786Z,45.07
2022-09-01T21:00:45.780Z,44.76
2022-09-01T21:05:46.787Z,44.53
2022-09-01T21:10:46.859Z,44.28
2022-09-01T21:15:46.896Z,44.15
2022-09-01T21:20:46.796Z,44.04
2022-09-01T21:25:46.820Z,44.00
2022-09-01T21:30:46.862Z,44.11
2022-09-01T21:35:46.809Z,44.10
2022-09-01T21:40:46.949Z,44.20
2022-09-01T21:45:46.874Z,44.29
2022-09-01T21:50:47.094Z,44.28
2022-09-01T21:55:46.856Z,44.29
2022-09-01T22:00:46.865Z,44.35
2022-09-01T22:05:46.875Z,44.37
2022-09-01T22:10:46.880Z,44.40
2022-09-01T22:15:46.980Z,44.30
2022-09-01T22:20:46.862Z,44.29
2022-09-01T22:25:47.145Z,44.45
2022-09-01T22:30:47.020Z,44.51
2022-09-01T22:35:46.902Z,44.50
2022-09-01T22:40:46.917Z,44.69
2022-09-01T22:45:47.049Z,44.71
2022-09-01T22:50:46.900Z,44.85
2022-09-01T22:55:47.669Z,45.04
2022-09-01T23:00:48.047Z,45.25
2022-09-01T23:05:47.925Z,45.39
2022-09-01T23:10:47.987Z,45.41
2022-09-01T23:15:47.918Z,45.55
2022-09-01T23:20:47.920Z,45.62
2022-09-01T23:25:52.885Z,45.65
2022-09-01T23:30:50.396Z,45.74
2022-09-01T23:35:49.920Z,45.79
2022-09-01T23:40:49.935Z,45.83
2022-09-01T23:45:50.002Z,45.85
2022-09-01T23:50:50.546Z,45.93
2022-09-01T23:55:50.924Z,45.94
